sensor_id;sensor_type;location;lat;lon;timestamp;temperature;humidity
9730;DHT22;4904;49.152;11.004;2023-08-06T00:01:35;15.20;99.90
9730;DHT22;4904;49.152;11.004;2023-08-06T00:04:02;15.10;99.90
9730;DHT22;4904;49.152;11.004;2023-08-06T00:06:29;15.10;99.90
9730;DHT22;4904;49.152;11.004;2023-08-06T00:08:58;15.20;99.90
9730;DHT22;4904;49.152;11.004;2023-08-06T00:11:25;15.20;99.90
9730;DHT22;4904;49.152;11.004;2023-08-06T00:13:52;15.10;99.90
9730;DHT22;4904;49.152;11.004;2023-08-06T00:16:19;15.10;99.90
9730;DHT22;4904;49.152;11.004;2023-08-06T00:18:46;15.20;99.90
9730;DHT22;4904;49.152;11.004;2023-08-06T00:21:13;15.10;99.90
9730;DHT22;4904;49.152;11.004;2023-08-06T00:23:41;15.20;99.90
9730;DHT22;4904;49.152;11.004;2023-08-06T00:26:10;15.20;99.90
9730;DHT22;4904;49.152;11.004;2023-08-06T00:28:37;15.10;99.90
9730;DHT22;4904;49.152;11.004;2023-08-06T00:31:04;15.00;99.90
9730;DHT22;4904;49.152;11.004;2023-08-06T00:33:31;14.90;99.90
9730;DHT22;4904;49.152;11.004;2023-08-06T00:35:58;14.80;99.90
9730;DHT22;4904;49.152;11.004;2023-08-06T00:38:25;14.70;99.90
9730;DHT22;4904;49.152;11.004;2023-08-06T00:40:52;14.90;99.90
9730;DHT22;4904;49.152;11.004;2023-08-06T00:43:20;14.80;99.90
9730;DHT22;4904;49.152;11.004;2023-08-06T00:45:47;14.70;99.90
9730;DHT22;4904;49.152;11.004;2023-08-06T00:48:14;14.60;99.90
9730;DHT22;4904;49.152;11.004;2023-08-06T00:50:41;14.60;99.90
9730;DHT22;4904;49.152;11.004;2023-08-06T00:53:08;14.60;99.90
9730;DHT22;4904;49.152;11.004;2023-08-06T00:55:35;14.60;99.90
9730;DHT22;4904;49.152;11.004;2023-08-06T00:58:02;14.70;99.90
9730;DHT22;4904;49.152;11.004;2023-08-06T01:00:32;14.80;99.90
9730;DHT22;4904;49.152;11.004;2023-08-06T01:02:59;14.20;99.90
9730;DHT22;4904;49.152;11.004;2023-08-06T01:05:27;14.70;99.90
9730;DHT22;4904;49.152;11.004;2023-08-06T01:08:06;14.60;99.90
9730;DHT22;4904;49.152;11.004;2023-08-06T01:10:41;14.70;99.90
9730;DHT22;4904;49.152;11.004;2023-08-06T01:13:18;14.70;99.90
9730;DHT22;4904;49.152;11.004;2023-08-06T01:15:54;14.70;99.90
9730;DHT22;4904;49.152;11.004;2023-08-06T01:18:22;14.70;99.90
9730;DHT22;4904;49.152;11.004;2023-08-06T01:20:50;14.80;99.90
9730;DHT22;4904;49.152;11.004;2023-08-06T01:23:18;14.90;99.90
9730;DHT22;4904;49.152;11.004;2023-08-06T01:25:53;14.90;99.90
9730;DHT22;4904;49.152;11.004;2023-08-06T01:28:27;14.90;99.90
9730;DHT22;4904;49.152;11.004;2023-08-06T01:30:59;14.90;99.90
9730;DHT22;4904;49.152;11.004;2023-08-06T01:33:31;14.90;99.90
9730;DHT22;4904;49.152;11.004;2023-08-06T01:36:01;14.90;99.90
9730;DHT22;4904;49.152;11.004;2023-08-06T01:38:29;14.70;99.90
9730;DHT22;4904;49.152;11.004;2023-08-06T01:40:56;14.60;99.90
9730;DHT22;4904;49.152;11.004;2023-08-06T01:43:23;14.60;99.90
9730;DHT22;4904;49.152;11.004;2023-08-06T01:45:50;14.40;99.90
9730;DHT22;4904;49.152;11.004;2023-08-06T01:48:17;14.30;99.90
9730;DHT22;4904;49.152;11.004;2023-08-06T01:50:44;14.40;99.90
9730;DHT22;4904;49.152;11.004;2023-08-06T01:53:12;14.40;99.90
9730;DHT22;4904;49.152;11.004;2023-08-06T01:55:39;14.60;99.90
9730;DHT22;4904;49.152;11.004;2023-08-06T01:58:06;14.60;99.90
9730;DHT22;4904;49.152;11.004;2023-08-06T02:00:32;14.70;99.90
9730;DHT22;4904;49.152;11.004;2023-08-06T02:02:59;14.70;99.90
9730;DHT22;4904;49.152;11.004;2023-08-06T02:05:26;14.70;99.90
9730;DHT22;4904;49.152;11.004;2023-08-06T02:07:53;14.80;99.90
9730;DHT22;4904;49.152;11.004;2023-08-06T02:10:21;14.80;99.90
9730;DHT22;4904;49.152;11.004;2023-08-06T02:12:48;15.00;99.90
9730;DHT22;4904;49.152;11.004;2023-08-06T02:15:15;14.90;99.90
9730;DHT22;4904;49.152;11.004;2023-08-06T02:17:42;14.90;99.90
9730;DHT22;4904;49.152;11.004;2023-08-06T02:20:09;14.90;99.90
9730;DHT22;4904;49.152;11.004;2023-08-06T02:22:36;14.90;99.90
9730;DHT22;4904;49.152;11.004;2023-08-06T02:25:04;15.00;99.90
9730;DHT22;4904;49.152;11.004;2023-08-06T02:27:32;15.10;99.90
9730;DHT22;4904;49.152;11.004;2023-08-06T02:29:59;15.10;99.90
9730;DHT22;4904;49.152;11.004;2023-08-06T02:32:26;15.10;99.90
9730;DHT22;4904;49.152;11.004;2023-08-06T02:34:54;15.10;99.90
9730;DHT22;4904;49.152;11.004;2023-08-06T02:37:21;15.10;99.90
9730;DHT22;4904;49.152;11.004;2023-08-06T02:39:48;15.10;99.90
9730;DHT22;4904;49.152;11.004;2023-08-06T02:42:15;15.00;99.90
9730;DHT22;4904;49.152;11.004;2023-08-06T02:44:43;15.00;99.90
9730;DHT22;4904;49.152;11.004;2023-08-06T02:47:10;15.00;99.90
9730;DHT22;4904;49.152;11.004;2023-08-06T02:49:37;15.00;99.90
9730;DHT22;4904;49.152;11.004;2023-08-06T02:52:05;15.00;99.90
9730;DHT22;4904;49.152;11.004;2023-08-06T02:54:32;15.10;99.90
9730;DHT22;4904;49.152;11.004;2023-08-06T02:56:59;15.00;99.90
9730;DHT22;4904;49.152;11.004;2023-08-06T02:59:26;15.10;99.90
9730;DHT22;4904;49.152;11.004;2023-08-06T03:01:54;15.10;99.90
9730;DHT22;4904;49.152;11.004;2023-08-06T03:04:21;15.10;99.90
9730;DHT22;4904;49.152;11.004;2023-08-06T03:06:49;15.10;99.90
9730;DHT22;4904;49.152;11.004;2023-08-06T03:09:17;15.00;99.90
9730;DHT22;4904;49.152;11.004;2023-08-06T03:11:44;15.00;99.90
9730;DHT22;4904;49.152;11.004;2023-08-06T03:14:11;15.00;99.90
9730;DHT22;4904;49.152;11.004;2023-08-06T03:16:38;14.90;99.90
9730;DHT22;4904;49.152;11.004;2023-08-06T03:19:06;15.00;99.90
9730;DHT22;4904;49.152;11.004;2023-08-06T03:21:33;14.90;99.90
9730;DHT22;4904;49.152;11.004;2023-08-06T03:27:23;14.90;99.90
9730;DHT22;4904;49.152;11.004;2023-08-06T03:29:50;14.80;99.90
9730;DHT22;4904;49.152;11.004;2023-08-06T03:32:17;14.70;99.90
9730;DHT22;4904;49.152;11.004;2023-08-06T03:34:45;14.60;99.90
9730;DHT22;4904;49.152;11.004;2023-08-06T03:40:35;14.70;99.90
9730;DHT22;4904;49.152;11.004;2023-08-06T03:43:02;14.70;99.90
9730;DHT22;4904;49.152;11.004;2023-08-06T03:45:29;14.70;99.90
9730;DHT22;4904;49.152;11.004;2023-08-06T03:47:56;14.60;99.90
9730;DHT22;4904;49.152;11.004;2023-08-06T03:50:25;14.50;99.90
9730;DHT22;4904;49.152;11.004;2023-08-06T03:52:52;14.50;99.90
9730;DHT22;4904;49.152;11.004;2023-08-06T03:55:19;14.50;99.90
9730;DHT22;4904;49.152;11.004;2023-08-06T03:57:46;14.50;99.90
9730;DHT22;4904;49.152;11.004;2023-08-06T04:00:13;14.50;99.90
9730;DHT22;4904;49.152;11.004;2023-08-06T04:02:40;14.50;99.90
9730;DHT22;4904;49.152;11.004;2023-08-06T04:05:07;14.50;99.90
9730;DHT22;4904;49.152;11.004;2023-08-06T04:07:36;14.50;99.90
9730;DHT22;4904;49.152;11.004;2023-08-06T04:10:04;14.40;99.90
9730;DHT22;4904;49.152;11.004;2023-08-06T04:12:31;14.40;99.90
9730;DHT22;4904;49.152;11.004;2023-08-06T04:15:02;14.60;99.90
9730;DHT22;4904;49.152;11.004;2023-08-06T04:17:29;14.40;99.90
9730;DHT22;4904;49.152;11.004;2023-08-06T04:19:56;14.40;99.90
9730;DHT22;4904;49.152;11.004;2023-08-06T04:22:24;14.40;99.90
9730;DHT22;4904;49.152;11.004;2023-08-06T04:24:53;14.40;99.90
9730;DHT22;4904;49.152;11.004;2023-08-06T04:27:20;14.50;99.90
9730;DHT22;4904;49.152;11.004;2023-08-06T04:29:47;14.40;99.90
9730;DHT22;4904;49.152;11.004;2023-08-06T04:32:14;14.40;99.90
9730;DHT22;4904;49.152;11.004;2023-08-06T04:34:41;14.50;99.90
9730;DHT22;4904;49.152;11.004;2023-08-06T04:37:08;14.40;99.90
9730;DHT22;4904;49.152;11.004;2023-08-06T04:39:35;14.30;99.90
9730;DHT22;4904;49.152;11.004;2023-08-06T04:42:05;14.30;99.90
9730;DHT22;4904;49.152;11.004;2023-08-06T04:44:34;14.30;99.90
9730;DHT22;4904;49.152;11.004;2023-08-06T04:47:01;14.30;99.90
9730;DHT22;4904;49.152;11.004;2023-08-06T04:49:28;14.40;99.90
9730;DHT22;4904;49.152;11.004;2023-08-06T04:51:55;14.40;99.90
9730;DHT22;4904;49.152;11.004;2023-08-06T04:54:22;14.30;99.90
9730;DHT22;4904;49.152;11.004;2023-08-06T04:56:49;14.40;99.90
9730;DHT22;4904;49.152;11.004;2023-08-06T04:59:17;14.30;99.90
9730;DHT22;4904;49.152;11.004;2023-08-06T05:05:06;14.40;99.90
9730;DHT22;4904;49.152;11.004;2023-08-06T05:07:34;14.30;99.90
9730;DHT22;4904;49.152;11.004;2023-08-06T05:10:01;14.10;99.90
9730;DHT22;4904;49.152;11.004;2023-08-06T05:12:29;14.10;99.90
9730;DHT22;4904;49.152;11.004;2023-08-06T05:14:58;14.10;99.90
9730;DHT22;4904;49.152;11.004;2023-08-06T05:17:25;14.10;99.90
9730;DHT22;4904;49.152;11.004;2023-08-06T05:19:51;14.00;99.90
9730;DHT22;4904;49.152;11.004;2023-08-06T05:22:18;14.20;99.90
9730;DHT22;4904;49.152;11.004;2023-08-06T05:24:45;14.20;99.90
9730;DHT22;4904;49.152;11.004;2023-08-06T05:27:12;14.20;99.90
9730;DHT22;4904;49.152;11.004;2023-08-06T05:29:39;14.20;99.90
9730;DHT22;4904;49.152;11.004;2023-08-06T05:32:08;14.30;99.90
9730;DHT22;4904;49.152;11.004;2023-08-06T05:34:36;14.30;99.90
9730;DHT22;4904;49.152;11.004;2023-08-06T05:37:03;14.30;99.90
9730;DHT22;4904;49.152;11.004;2023-08-06T05:39:30;14.30;99.90
9730;DHT22;4904;49.152;11.004;2023-08-06T05:41:58;14.40;99.90
9730;DHT22;4904;49.152;11.004;2023-08-06T05:44:25;14.50;99.90
9730;DHT22;4904;49.152;11.004;2023-08-06T05:46:52;14.60;99.90
9730;DHT22;4904;49.152;11.004;2023-08-06T05:49:20;14.60;99.90
9730;DHT22;4904;49.152;11.004;2023-08-06T05:51:47;14.50;99.90
9730;DHT22;4904;49.152;11.004;2023-08-06T05:54:14;14.60;99.90
9730;DHT22;4904;49.152;11.004;2023-08-06T05:56:41;14.50;99.90
9730;DHT22;4904;49.152;11.004;2023-08-06T05:59:08;14.60;99.90
9730;DHT22;4904;49.152;11.004;2023-08-06T06:01:35;14.70;99.90
9730;DHT22;4904;49.152;11.004;2023-08-06T06:04:02;14.70;99.90
9730;DHT22;4904;49.152;11.004;2023-08-06T06:06:31;14.80;99.90
9730;DHT22;4904;49.152;11.004;2023-08-06T06:08:58;14.80;99.90
9730;DHT22;4904;49.152;11.004;2023-08-06T06:11:25;14.80;99.90
9730;DHT22;4904;49.152;11.004;2023-08-06T06:13:52;14.80;99.90
9730;DHT22;4904;49.152;11.004;2023-08-06T06:16:18;14.90;99.90
9730;DHT22;4904;49.152;11.004;2023-08-06T06:18:45;14.90;99.90
9730;DHT22;4904;49.152;11.004;2023-08-06T06:21:12;14.90;99.90
9730;DHT22;4904;49.152;11.004;2023-08-06T06:23:40;14.90;99.90
9730;DHT22;4904;49.152;11.004;2023-08-06T06:26:07;14.90;99.90
9730;DHT22;4904;49.152;11.004;2023-08-06T06:28:35;15.00;99.90
9730;DHT22;4904;49.152;11.004;2023-08-06T06:31:02;14.90;99.90
9730;DHT22;4904;49.152;11.004;2023-08-06T06:33:30;14.80;99.90
9730;DHT22;4904;49.152;11.004;2023-08-06T06:35:56;14.80;99.90
9730;DHT22;4904;49.152;11.004;2023-08-06T06:38:23;14.80;99.90
9730;DHT22;4904;49.152;11.004;2023-08-06T06:40:55;14.90;99.90
9730;DHT22;4904;49.152;11.004;2023-08-06T06:43:22;15.00;99.90
9730;DHT22;4904;49.152;11.004;2023-08-06T06:45:53;15.00;99.90
9730;DHT22;4904;49.152;11.004;2023-08-06T06:48:20;15.00;99.90
9730;DHT22;4904;49.152;11.004;2023-08-06T06:50:47;14.90;99.90
9730;DHT22;4904;49.152;11.004;2023-08-06T06:53:14;15.10;99.90
9730;DHT22;4904;49.152;11.004;2023-08-06T06:55:41;15.10;99.90
9730;DHT22;4904;49.152;11.004;2023-08-06T06:58:09;15.10;99.90
9730;DHT22;4904;49.152;11.004;2023-08-06T07:03:59;15.20;99.90
9730;DHT22;4904;49.152;11.004;2023-08-06T07:06:30;15.30;99.90
9730;DHT22;4904;49.152;11.004;2023-08-06T07:08:58;15.20;99.90
9730;DHT22;4904;49.152;11.004;2023-08-06T07:11:25;15.30;99.90
9730;DHT22;4904;49.152;11.004;2023-08-06T07:14:00;15.30;99.90
9730;DHT22;4904;49.152;11.004;2023-08-06T07:16:27;15.30;99.90
9730;DHT22;4904;49.152;11.004;2023-08-06T07:18:55;15.40;99.90
9730;DHT22;4904;49.152;11.004;2023-08-06T07:21:23;15.40;99.90
9730;DHT22;4904;49.152;11.004;2023-08-06T07:23:50;15.50;99.90
9730;DHT22;4904;49.152;11.004;2023-08-06T07:29:41;15.40;99.90
9730;DHT22;4904;49.152;11.004;2023-08-06T07:32:08;15.30;99.90
9730;DHT22;4904;49.152;11.004;2023-08-06T07:34:36;15.40;99.90
9730;DHT22;4904;49.152;11.004;2023-08-06T07:37:04;15.30;99.90
9730;DHT22;4904;49.152;11.004;2023-08-06T07:39:33;15.20;99.90
9730;DHT22;4904;49.152;11.004;2023-08-06T07:42:04;15.10;99.90
9730;DHT22;4904;49.152;11.004;2023-08-06T07:44:32;14.90;99.90
9730;DHT22;4904;49.152;11.004;2023-08-06T07:47:00;14.90;99.90
9730;DHT22;4904;49.152;11.004;2023-08-06T07:49:27;14.90;99.90
9730;DHT22;4904;49.152;11.004;2023-08-06T07:51:54;15.00;99.90
9730;DHT22;4904;49.152;11.004;2023-08-06T07:54:21;14.90;99.90
9730;DHT22;4904;49.152;11.004;2023-08-06T07:56:49;15.10;99.90
9730;DHT22;4904;49.152;11.004;2023-08-06T07:59:16;15.00;99.90
9730;DHT22;4904;49.152;11.004;2023-08-06T08:01:43;15.10;99.90
9730;DHT22;4904;49.152;11.004;2023-08-06T08:04:12;15.00;99.90
9730;DHT22;4904;49.152;11.004;2023-08-06T08:06:39;15.00;99.90
9730;DHT22;4904;49.152;11.004;2023-08-06T08:09:05;15.00;99.90
9730;DHT22;4904;49.152;11.004;2023-08-06T08:11:32;15.10;99.90
9730;DHT22;4904;49.152;11.004;2023-08-06T08:14:30;15.20;99.90
9730;DHT22;4904;49.152;11.004;2023-08-06T08:17:01;15.30;99.90
9730;DHT22;4904;49.152;11.004;2023-08-06T08:19:29;15.40;99.90
9730;DHT22;4904;49.152;11.004;2023-08-06T08:21:56;15.50;99.90
9730;DHT22;4904;49.152;11.004;2023-08-06T08:24:23;15.70;99.90
9730;DHT22;4904;49.152;11.004;2023-08-06T08:26:51;15.80;99.90
9730;DHT22;4904;49.152;11.004;2023-08-06T08:29:19;15.80;99.90
9730;DHT22;4904;49.152;11.004;2023-08-06T08:31:46;15.90;99.90
9730;DHT22;4904;49.152;11.004;2023-08-06T08:34:17;15.60;99.90
9730;DHT22;4904;49.152;11.004;2023-08-06T08:36:47;15.30;99.90
9730;DHT22;4904;49.152;11.004;2023-08-06T08:42:48;14.70;99.90
9730;DHT22;4904;49.152;11.004;2023-08-06T08:45:15;14.70;99.90
9730;DHT22;4904;49.152;11.004;2023-08-06T08:47:42;14.80;99.90
9730;DHT22;4904;49.152;11.004;2023-08-06T08:50:10;14.90;99.90
9730;DHT22;4904;49.152;11.004;2023-08-06T08:52:40;15.00;99.90
9730;DHT22;4904;49.152;11.004;2023-08-06T08:55:08;15.10;99.90
9730;DHT22;4904;49.152;11.004;2023-08-06T08:57:35;15.10;99.90
9730;DHT22;4904;49.152;11.004;2023-08-06T09:00:03;15.10;99.90
9730;DHT22;4904;49.152;11.004;2023-08-06T09:02:31;15.00;99.90
9730;DHT22;4904;49.152;11.004;2023-08-06T09:05:00;14.90;99.90
9730;DHT22;4904;49.152;11.004;2023-08-06T09:07:31;14.60;99.90
9730;DHT22;4904;49.152;11.004;2023-08-06T09:10:02;14.40;99.90
9730;DHT22;4904;49.152;11.004;2023-08-06T09:12:30;14.30;99.90
9730;DHT22;4904;49.152;11.004;2023-08-06T09:14:58;14.30;99.90
9730;DHT22;4904;49.152;11.004;2023-08-06T09:17:25;14.20;99.90
9730;DHT22;4904;49.152;11.004;2023-08-06T09:19:54;14.30;99.90
9730;DHT22;4904;49.152;11.004;2023-08-06T09:22:20;14.20;99.90
9730;DHT22;4904;49.152;11.004;2023-08-06T09:24:48;14.10;99.90
9730;DHT22;4904;49.152;11.004;2023-08-06T09:27:16;14.20;99.90
9730;DHT22;4904;49.152;11.004;2023-08-06T09:29:44;14.20;99.90
9730;DHT22;4904;49.152;11.004;2023-08-06T09:32:12;14.10;99.90
9730;DHT22;4904;49.152;11.004;2023-08-06T09:34:42;14.20;99.90
9730;DHT22;4904;49.152;11.004;2023-08-06T09:37:10;14.10;99.90
9730;DHT22;4904;49.152;11.004;2023-08-06T09:39:39;14.20;99.90
9730;DHT22;4904;49.152;11.004;2023-08-06T09:42:06;14.20;99.90
9730;DHT22;4904;49.152;11.004;2023-08-06T09:44:34;14.20;99.90
9730;DHT22;4904;49.152;11.004;2023-08-06T09:47:02;14.10;99.90
9730;DHT22;4904;49.152;11.004;2023-08-06T09:49:41;14.10;99.90
9730;DHT22;4904;49.152;11.004;2023-08-06T09:52:11;14.20;99.90
9730;DHT22;4904;49.152;11.004;2023-08-06T09:54:39;14.30;99.90
9730;DHT22;4904;49.152;11.004;2023-08-06T09:57:06;14.40;99.90
9730;DHT22;4904;49.152;11.004;2023-08-06T09:59:35;14.40;99.90
9730;DHT22;4904;49.152;11.004;2023-08-06T10:02:11;14.40;99.90
9730;DHT22;4904;49.152;11.004;2023-08-06T10:04:39;14.40;99.90
9730;DHT22;4904;49.152;11.004;2023-08-06T10:07:06;14.60;99.90
9730;DHT22;4904;49.152;11.004;2023-08-06T10:09:34;14.60;99.90
9730;DHT22;4904;49.152;11.004;2023-08-06T10:12:00;14.70;99.90
9730;DHT22;4904;49.152;11.004;2023-08-06T10:14:30;14.70;99.90
9730;DHT22;4904;49.152;11.004;2023-08-06T10:17:00;14.60;99.90
9730;DHT22;4904;49.152;11.004;2023-08-06T10:19:29;14.60;99.90
9730;DHT22;4904;49.152;11.004;2023-08-06T10:22:09;14.50;99.90
9730;DHT22;4904;49.152;11.004;2023-08-06T10:24:50;14.50;99.90
9730;DHT22;4904;49.152;11.004;2023-08-06T10:27:21;14.40;99.90
9730;DHT22;4904;49.152;11.004;2023-08-06T10:29:49;14.30;99.90
9730;DHT22;4904;49.152;11.004;2023-08-06T10:32:17;14.60;99.90
9730;DHT22;4904;49.152;11.004;2023-08-06T10:34:55;14.70;99.90
9730;DHT22;4904;49.152;11.004;2023-08-06T10:37:23;15.00;99.90
9730;DHT22;4904;49.152;11.004;2023-08-06T10:39:50;15.00;99.90
9730;DHT22;4904;49.152;11.004;2023-08-06T10:42:21;15.10;99.90
9730;DHT22;4904;49.152;11.004;2023-08-06T10:45:14;15.10;99.90
9730;DHT22;4904;49.152;11.004;2023-08-06T10:47:43;15.30;99.90
9730;DHT22;4904;49.152;11.004;2023-08-06T10:50:12;15.40;99.90
9730;DHT22;4904;49.152;11.004;2023-08-06T10:52:39;15.50;99.90
9730;DHT22;4904;49.152;11.004;2023-08-06T10:55:07;15.50;99.90
9730;DHT22;4904;49.152;11.004;2023-08-06T10:57:34;15.50;99.90
9730;DHT22;4904;49.152;11.004;2023-08-06T11:00:01;15.30;99.90
9730;DHT22;4904;49.152;11.004;2023-08-06T11:02:28;15.10;99.90
9730;DHT22;4904;49.152;11.004;2023-08-06T11:05:06;15.10;99.90
9730;DHT22;4904;49.152;11.004;2023-08-06T11:07:34;15.00;99.90
9730;DHT22;4904;49.152;11.004;2023-08-06T11:10:02;15.00;99.90
9730;DHT22;4904;49.152;11.004;2023-08-06T11:12:30;14.90;99.90
9730;DHT22;4904;49.152;11.004;2023-08-06T11:14:57;14.90;99.90
9730;DHT22;4904;49.152;11.004;2023-08-06T11:17:24;15.00;99.90
9730;DHT22;4904;49.152;11.004;2023-08-06T11:19:51;15.30;99.90
9730;DHT22;4904;49.152;11.004;2023-08-06T11:22:20;15.50;99.90
9730;DHT22;4904;49.152;11.004;2023-08-06T11:24:48;15.70;99.90
9730;DHT22;4904;49.152;11.004;2023-08-06T11:27:16;15.60;99.90
9730;DHT22;4904;49.152;11.004;2023-08-06T11:29:44;15.50;99.90
9730;DHT22;4904;49.152;11.004;2023-08-06T11:32:12;15.50;99.90
9730;DHT22;4904;49.152;11.004;2023-08-06T11:34:40;15.40;99.90
9730;DHT22;4904;49.152;11.004;2023-08-06T11:37:08;15.40;99.90
9730;DHT22;4904;49.152;11.004;2023-08-06T11:39:38;15.20;99.90
9730;DHT22;4904;49.152;11.004;2023-08-06T11:42:06;15.00;99.90
9730;DHT22;4904;49.152;11.004;2023-08-06T11:44:35;14.80;99.90
9730;DHT22;4904;49.152;11.004;2023-08-06T11:47:03;14.70;99.90
9730;DHT22;4904;49.152;11.004;2023-08-06T11:49:38;14.70;99.90
9730;DHT22;4904;49.152;11.004;2023-08-06T11:52:13;14.70;99.90
9730;DHT22;4904;49.152;11.004;2023-08-06T11:54:42;14.90;99.90
9730;DHT22;4904;49.152;11.004;2023-08-06T11:57:11;15.00;99.90
9730;DHT22;4904;49.152;11.004;2023-08-06T12:03:00;15.10;99.90
9730;DHT22;4904;49.152;11.004;2023-08-06T12:05:31;15.20;99.90
9730;DHT22;4904;49.152;11.004;2023-08-06T12:08:00;15.20;99.90
9730;DHT22;4904;49.152;11.004;2023-08-06T12:10:29;15.20;99.90
9730;DHT22;4904;49.152;11.004;2023-08-06T12:12:57;15.30;99.90
9730;DHT22;4904;49.152;11.004;2023-08-06T12:15:24;15.30;99.90
9730;DHT22;4904;49.152;11.004;2023-08-06T12:17:51;15.40;99.90
9730;DHT22;4904;49.152;11.004;2023-08-06T12:20:18;15.60;99.90
9730;DHT22;4904;49.152;11.004;2023-08-06T12:22:45;15.80;99.90
9730;DHT22;4904;49.152;11.004;2023-08-06T12:25:13;16.10;99.90
9730;DHT22;4904;49.152;11.004;2023-08-06T12:27:43;16.10;99.90
9730;DHT22;4904;49.152;11.004;2023-08-06T12:30:12;16.00;99.90
9730;DHT22;4904;49.152;11.004;2023-08-06T12:32:39;15.80;99.90
9730;DHT22;4904;49.152;11.004;2023-08-06T12:35:08;15.70;99.90
9730;DHT22;4904;49.152;11.004;2023-08-06T12:40:57;15.40;99.90
9730;DHT22;4904;49.152;11.004;2023-08-06T12:43:25;15.20;99.90
9730;DHT22;4904;49.152;11.004;2023-08-06T12:45:52;15.20;99.90
9730;DHT22;4904;49.152;11.004;2023-08-06T12:48:19;15.30;99.90
9730;DHT22;4904;49.152;11.004;2023-08-06T12:50:46;15.30;99.90
9730;DHT22;4904;49.152;11.004;2023-08-06T12:53:15;15.40;99.90
9730;DHT22;4904;49.152;11.004;2023-08-06T12:55:45;15.40;99.90
9730;DHT22;4904;49.152;11.004;2023-08-06T12:58:12;15.40;99.90
9730;DHT22;4904;49.152;11.004;2023-08-06T13:00:40;15.60;99.90
9730;DHT22;4904;49.152;11.004;2023-08-06T13:03:07;15.60;99.90
9730;DHT22;4904;49.152;11.004;2023-08-06T13:05:35;15.60;99.90
9730;DHT22;4904;49.152;11.004;2023-08-06T13:08:02;15.70;99.90
9730;DHT22;4904;49.152;11.004;2023-08-06T13:10:30;15.60;99.90
9730;DHT22;4904;49.152;11.004;2023-08-06T13:12:56;15.40;99.90
9730;DHT22;4904;49.152;11.004;2023-08-06T13:15:23;15.50;99.90
9730;DHT22;4904;49.152;11.004;2023-08-06T13:17:52;15.40;99.90
9730;DHT22;4904;49.152;11.004;2023-08-06T13:20:19;15.20;99.90
9730;DHT22;4904;49.152;11.004;2023-08-06T13:22:46;15.00;99.90
9730;DHT22;4904;49.152;11.004;2023-08-06T13:25:19;15.00;99.90
9730;DHT22;4904;49.152;11.004;2023-08-06T13:27:45;15.00;99.90
9730;DHT22;4904;49.152;11.004;2023-08-06T13:30:13;15.00;99.90
9730;DHT22;4904;49.152;11.004;2023-08-06T13:32:40;15.10;99.90
9730;DHT22;4904;49.152;11.004;2023-08-06T13:35:09;15.10;99.90
9730;DHT22;4904;49.152;11.004;2023-08-06T13:37:36;15.00;99.90
9730;DHT22;4904;49.152;11.004;2023-08-06T13:40:06;15.10;99.90
9730;DHT22;4904;49.152;11.004;2023-08-06T13:42:34;15.00;99.90
9730;DHT22;4904;49.152;11.004;2023-08-06T13:45:01;14.90;99.90
9730;DHT22;4904;49.152;11.004;2023-08-06T13:47:29;14.90;99.90
9730;DHT22;4904;49.152;11.004;2023-08-06T13:49:56;14.90;99.90
9730;DHT22;4904;49.152;11.004;2023-08-06T13:52:25;14.80;99.90
9730;DHT22;4904;49.152;11.004;2023-08-06T13:54:52;14.60;99.90
9730;DHT22;4904;49.152;11.004;2023-08-06T13:57:19;14.50;99.90
9730;DHT22;4904;49.152;11.004;2023-08-06T13:59:46;14.40;99.90
9730;DHT22;4904;49.152;11.004;2023-08-06T14:02:13;14.40;99.90
9730;DHT22;4904;49.152;11.004;2023-08-06T14:04:40;14.20;99.90
9730;DHT22;4904;49.152;11.004;2023-08-06T14:07:07;14.10;99.90
9730;DHT22;4904;49.152;11.004;2023-08-06T14:09:36;14.10;99.90
9730;DHT22;4904;49.152;11.004;2023-08-06T14:12:04;14.10;99.90
9730;DHT22;4904;49.152;11.004;2023-08-06T14:14:32;14.00;99.90
9730;DHT22;4904;49.152;11.004;2023-08-06T14:16:59;14.00;99.90
9730;DHT22;4904;49.152;11.004;2023-08-06T14:19:26;14.00;99.90
9730;DHT22;4904;49.152;11.004;2023-08-06T14:21:54;13.90;99.90
9730;DHT22;4904;49.152;11.004;2023-08-06T14:24:22;13.90;99.90
9730;DHT22;4904;49.152;11.004;2023-08-06T14:26:50;13.90;99.90
9730;DHT22;4904;49.152;11.004;2023-08-06T14:29:17;13.80;99.90
9730;DHT22;4904;49.152;11.004;2023-08-06T14:31:44;13.70;99.90
9730;DHT22;4904;49.152;11.004;2023-08-06T14:34:11;13.70;99.90
9730;DHT22;4904;49.152;11.004;2023-08-06T14:36:38;13.60;99.90
9730;DHT22;4904;49.152;11.004;2023-08-06T14:39:05;13.50;99.90
9730;DHT22;4904;49.152;11.004;2023-08-06T14:41:32;13.50;99.90
9730;DHT22;4904;49.152;11.004;2023-08-06T14:44:00;13.50;99.90
9730;DHT22;4904;49.152;11.004;2023-08-06T14:46:27;13.40;99.90
9730;DHT22;4904;49.152;11.004;2023-08-06T14:48:55;13.40;99.90
9730;DHT22;4904;49.152;11.004;2023-08-06T14:51:22;13.40;99.90
9730;DHT22;4904;49.152;11.004;2023-08-06T14:53:49;13.50;99.90
9730;DHT22;4904;49.152;11.004;2023-08-06T14:56:17;13.50;99.90
9730;DHT22;4904;49.152;11.004;2023-08-06T14:58:44;13.50;99.90
9730;DHT22;4904;49.152;11.004;2023-08-06T15:01:13;13.60;99.90
9730;DHT22;4904;49.152;11.004;2023-08-06T15:03:39;13.60;99.90
9730;DHT22;4904;49.152;11.004;2023-08-06T15:06:06;13.70;99.90
9730;DHT22;4904;49.152;11.004;2023-08-06T15:08:33;13.70;99.90
9730;DHT22;4904;49.152;11.004;2023-08-06T15:11:00;13.70;99.90
9730;DHT22;4904;49.152;11.004;2023-08-06T15:13:29;13.80;99.90
9730;DHT22;4904;49.152;11.004;2023-08-06T15:15:56;13.90;99.90
9730;DHT22;4904;49.152;11.004;2023-08-06T15:18:24;14.00;99.90
9730;DHT22;4904;49.152;11.004;2023-08-06T15:20:51;14.00;99.90
9730;DHT22;4904;49.152;11.004;2023-08-06T15:23:20;14.10;99.90
9730;DHT22;4904;49.152;11.004;2023-08-06T15:28:55;14.30;99.90
9730;DHT22;4904;49.152;11.004;2023-08-06T15:31:35;14.30;99.90
9730;DHT22;4904;49.152;11.004;2023-08-06T15:34:04;14.40;99.90
9730;DHT22;4904;49.152;11.004;2023-08-06T15:36:32;14.50;99.90
9730;DHT22;4904;49.152;11.004;2023-08-06T15:38:59;14.50;99.90
9730;DHT22;4904;49.152;11.004;2023-08-06T15:41:26;14.60;99.90
9730;DHT22;4904;49.152;11.004;2023-08-06T15:43:53;14.70;99.90
9730;DHT22;4904;49.152;11.004;2023-08-06T15:46:21;14.70;99.90
9730;DHT22;4904;49.152;11.004;2023-08-06T15:48:48;14.60;99.90
9730;DHT22;4904;49.152;11.004;2023-08-06T15:51:16;14.60;99.90
9730;DHT22;4904;49.152;11.004;2023-08-06T15:53:43;14.50;99.90
9730;DHT22;4904;49.152;11.004;2023-08-06T15:56:10;14.40;99.90
9730;DHT22;4904;49.152;11.004;2023-08-06T16:01:40;14.60;99.90
9730;DHT22;4904;49.152;11.004;2023-08-06T16:04:07;14.50;99.90
9730;DHT22;4904;49.152;11.004;2023-08-06T16:06:36;14.60;99.90
9730;DHT22;4904;49.152;11.004;2023-08-06T16:09:03;14.50;99.90
9730;DHT22;4904;49.152;11.004;2023-08-06T16:11:30;14.40;99.90
9730;DHT22;4904;49.152;11.004;2023-08-06T16:13:57;14.30;99.90
9730;DHT22;4904;49.152;11.004;2023-08-06T16:16:24;14.30;99.90
9730;DHT22;4904;49.152;11.004;2023-08-06T16:18:50;14.00;99.90
9730;DHT22;4904;49.152;11.004;2023-08-06T16:21:18;13.90;99.90
9730;DHT22;4904;49.152;11.004;2023-08-06T16:23:47;13.80;99.90